Terminal Aerodrome Forecast
Issued by NWS

Home | Current Version | Previous Version | Text Only | Print | Product List | Glossary On
Versions: 1 2 3 4 5 6 7 8 9 10 11 12 13 14 15 16 17 18 19 20 21 22 23 24 25 26 27
000
FTUS43 KDTX 222320
TAFPTK
TAF
KPTK 222320Z 2300/2324 11005KT 1/4SM FG OVC002
     FM230300 15005KT 2SM BR BKN003
     FM230400 19008KT P6SM SCT035 WS010/23040KT
     FM231100 21012KT P6SM BKN022
     FM231600 22015G28KT P6SM BKN040
      TEMPO 2320/2322 2SM TSRA BR BKN028 OVC040CB
     FM232200 29015G25KT 5SM -SHRA BKN018 OVC025=

USA.gov is the U.S. government's official web portal to all federal, state and local government web resources and services.